• Join FlightAware (Why Join?)
  • Login
  • US Flag 
08:30AM EDT


 

Airport Tracker/Info


-or-


 

Live Flight TrackerFlight Track Log ✈ N912DM ✈ 06-Mar-2014 ✈ KBAF - KZER

Flight Track Log - Related Links

Times and Time Zones

All times are in EST time to prevent confusion due to time zone crossing. See the N912DM flight status page for this flight to view local times or setup timezone preferences in your user account.

Time Position Orientation Groundspeed Altitude Reporting Facility
EST Latitude Longitude Course Direction KTS MPH feet Rate Location/Type
03:34PM 42.1253 -72.7217 198° South 106 122 6,000  Level Boston Center
03:35PM 42.0969 -72.7339 198° South 105 121 2,200 -1,920 Descending Boston Center
03:36PM 42.0883 -72.7653 250° West 131 151 2,700 660 Climbing Boston Center
03:36PM 42.0853 -72.7794 254° West 130 150 2,900 660 Climbing Boston Center
03:37PM 42.0725 -72.8117 242° Southwest 144 166 3,400 660 Climbing Boston Center
03:37PM 42.0689 -72.8272 253° West 141 162 3,600 660 Climbing Boston Center
03:38PM 42.0544 -72.8689 245° Southwest 142 163 4,200 780 Climbing Boston Center
03:38PM 42.0514 -72.8789 248° West 142 163 4,400 780 Climbing Boston Center
03:39PM 42.0386 -72.9153 245° Southwest 141 162 5,000 720 Climbing Boston Center
03:39PM 42.0350 -72.9269 247° West 142 163 5,200 720 Climbing Boston Center
03:40PM 42.0233 -72.9589 244° Southwest 142 163 5,700 660 Climbing Boston Center
03:40PM 42.0181 -72.9742 245° Southwest 142 163 5,900 180 Climbing Boston Center
03:41PM 41.9983 -73.0347 246° West 164 189 6,000  Climbing Boston Center
03:42PM 41.9783 -73.0914 245° Southwest 168 193 6,000  Level Boston Center
03:43PM 41.9600 -73.1450 245° Southwest 159 183 6,000 180 Level Boston Center
03:44PM 41.9406 -73.2000 245° Southwest 152 175 6,400 420 Climbing Boston Center
03:45PM 41.9303 -73.2489 254° West 138 159 6,900 480 Climbing Boston Center
03:46PM 41.9206 -73.2972 255° West 135 155 7,400 480 Climbing Boston Center
03:47PM 41.9108 -73.3483 256° West 132 152 7,900 240 Climbing Boston Center
03:48PM 41.9008 -73.3997 255° West 144 166 8,000 60 Climbing Boston Center
03:49PM 41.8900 -73.4542 255° West 150 173 8,100  Climbing Boston Center
03:50PM 41.8789 -73.5144 256° West 156 180 8,100  Level Boston Center
03:51PM 41.8681 -73.5708 256° West 158 182 8,100  Level Boston Center
03:52PM 41.8572 -73.6272 256° West 158 182 8,100  Level Boston Center
03:53PM 41.8453 -73.6881 255° West 157 181 8,100  Level Boston Center
03:54PM 41.8344 -73.7439 255° West 156 180 8,100  Level Boston Center
03:55PM 41.8233 -73.8008 255° West 158 182 8,100  Level Boston Center
03:56PM 41.8119 -73.8564 255° West 157 181 8,100  Level Boston Center
03:57PM 41.8003 -73.9178 256° West 160 184 8,100  Level Boston Center
03:58PM 41.7881 -73.9739 254° West 158 182 8,100  Level Boston Center
03:59PM 41.7767 -74.0333 256° West 155 178 8,100  Level Boston Center
04:01PM 41.7656 -74.0900 255° West 158 182 8,100  Level Boston Center
04:02PM 41.7539 -74.1467 255° West 158 182 8,100  Level Boston Center
04:03PM 41.7428 -74.2075 256° West 157 181 8,100  Level Boston Center
04:04PM 41.7300 -74.2642 253° West 159 183 8,100  Level Boston Center
04:05PM 41.7189 -74.3208 255° West 158 182 8,100  Level Boston Center
04:06PM 41.7058 -74.3822 254° West 160 184 8,100  Level Boston Center
04:07PM 41.6947 -74.4400 256° West 160 184 8,100  Level Boston Center
04:08PM 41.6833 -74.4964 255° West 160 184 8,100  Level Boston Center
04:09PM 41.6706 -74.5564 254° West 158 182 8,100  Level Boston Center
04:10PM 41.6589 -74.6133 255° West 159 183 8,100  Level Boston Center
04:11PM 41.6472 -74.6697 255° West 159 183 8,200  Climbing Boston Center
04:12PM 41.6350 -74.7289 255° West 154 177 8,200  Level Boston Center
04:13PM 41.6242 -74.7842 255° West 154 177 8,200  Level Boston Center
04:14PM 41.6122 -74.8408 254° West 158 182 8,200  Level Boston Center
04:15PM 41.5997 -74.9006 254° West 155 178 8,200  Level Boston Center
04:16PM 41.5878 -74.9564 254° West 156 180 8,200 -120 Level Boston Center
04:17PM 41.5767 -75.0128 255° West 158 182 8,000 -420 Descending Boston Center
04:18PM 41.5628 -75.0783 254° West 170 196 7,400 -600 Descending Boston Center
04:19PM 41.5511 -75.1331 254° West 181 208 6,800 -600 Descending Boston Center
04:20PM 41.5356 -75.2111 255° West 182 209 6,200 -360 Descending Boston Center
04:21PM 41.5000 -75.2531 221° Southwest 177 204 6,100  Descending Boston Center
04:22PM 41.4689 -75.2964 226° Southwest 169 194 6,200  Climbing Boston Center
04:23PM 41.4386 -75.3408 228° Southwest 164 189 6,100 -60 Descending Boston Center
04:24PM 41.4075 -75.3850 227° Southwest 164 189 6,100  Level Boston Center
04:25PM 41.3775 -75.4289 228° Southwest 163 188 6,200 -60 Climbing Boston Center
04:26PM 41.3469 -75.4731 227° Southwest 162 186 6,000 -60 Descending Boston Center
04:27PM 41.3144 -75.5189 227° Southwest 166 191 6,100  Climbing Boston Center
04:28PM 41.2847 -75.5617 227° Southwest 160 184 6,100  Level Boston Center
04:29PM 41.2478 -75.6144 227° Southwest 161 185 6,100  Level Boston Center
04:30PM 41.2172 -75.6578 227° Southwest 161 185 6,100  Level Boston Center
04:31PM 41.1867 -75.7000 226° Southwest 160 184 6,200  Climbing Boston Center
04:32PM 41.1561 -75.7439 227° Southwest 160 184 6,200  Level Boston Center